sensor_id;sensor_type;location;lat;lon;timestamp;P1;durP1;ratioP1;P2;durP2;ratioP2
27145;SDS011;17980;51.744;7.190;2024-02-21T00:00:22;2.47;;;1.30;;
27145;SDS011;17980;51.744;7.190;2024-02-21T00:02:50;1.53;;;1.37;;
27145;SDS011;17980;51.744;7.190;2024-02-21T00:05:17;1.43;;;0.77;;
27145;SDS011;17980;51.744;7.190;2024-02-21T00:07:44;1.60;;;1.30;;
27145;SDS011;17980;51.744;7.190;2024-02-21T00:10:21;3.63;;;1.17;;
27145;SDS011;17980;51.744;7.190;2024-02-21T00:12:49;1.07;;;0.77;;
27145;SDS011;17980;51.744;7.190;2024-02-21T00:15:25;1.00;;;0.80;;
27145;SDS011;17980;51.744;7.190;2024-02-21T00:17:53;1.23;;;1.00;;
27145;SDS011;17980;51.744;7.190;2024-02-21T00:20:30;2.37;;;0.77;;
27145;SDS011;17980;51.744;7.190;2024-02-21T00:22:57;1.80;;;1.33;;
27145;SDS011;17980;51.744;7.190;2024-02-21T00:25:25;3.60;;;1.23;;
27145;SDS011;17980;51.744;7.190;2024-02-21T00:27:52;6.60;;;1.47;;
27145;SDS011;17980;51.744;7.190;2024-02-21T00:30:29;2.47;;;1.33;;
27145;SDS011;17980;51.744;7.190;2024-02-21T00:32:56;2.63;;;1.10;;
27145;SDS011;17980;51.744;7.190;2024-02-21T00:35:24;1.50;;;0.93;;
27145;SDS011;17980;51.744;7.190;2024-02-21T00:37:51;4.03;;;0.93;;
27145;SDS011;17980;51.744;7.190;2024-02-21T00:40:28;1.67;;;1.27;;
27145;SDS011;17980;51.744;7.190;2024-02-21T00:42:56;1.03;;;0.63;;
27145;SDS011;17980;51.744;7.190;2024-02-21T00:45:23;3.57;;;1.00;;
27145;SDS011;17980;51.744;7.190;2024-02-21T00:47:50;1.97;;;1.23;;
27145;SDS011;17980;51.744;7.190;2024-02-21T00:50:18;0.70;;;0.60;;
27145;SDS011;17980;51.744;7.190;2024-02-21T00:52:55;1.77;;;1.13;;
27145;SDS011;17980;51.744;7.190;2024-02-21T00:55:22;5.57;;;1.37;;
27145;SDS011;17980;51.744;7.190;2024-02-21T00:57:49;4.47;;;2.00;;
27145;SDS011;17980;51.744;7.190;2024-02-21T01:00:18;2.50;;;1.30;;
27145;SDS011;17980;51.744;7.190;2024-02-21T01:02:55;3.43;;;1.50;;
27145;SDS011;17980;51.744;7.190;2024-02-21T01:05:23;4.27;;;1.30;;
27145;SDS011;17980;51.744;7.190;2024-02-21T01:07:50;1.50;;;1.00;;
27145;SDS011;17980;51.744;7.190;2024-02-21T01:10:17;2.90;;;1.27;;
27145;SDS011;17980;51.744;7.190;2024-02-21T01:12:54;2.10;;;1.23;;
27145;SDS011;17980;51.744;7.190;2024-02-21T01:15:22;1.77;;;1.47;;
27145;SDS011;17980;51.744;7.190;2024-02-21T01:17:49;2.57;;;1.37;;
27145;SDS011;17980;51.744;7.190;2024-02-21T01:20:18;5.00;;;1.20;;
27145;SDS011;17980;51.744;7.190;2024-02-21T01:22:55;1.10;;;0.73;;
27145;SDS011;17980;51.744;7.190;2024-02-21T01:25:22;5.10;;;1.00;;
27145;SDS011;17980;51.744;7.190;2024-02-21T01:27:50;3.80;;;1.33;;
27145;SDS011;17980;51.744;7.190;2024-02-21T01:30:27;3.17;;;1.60;;
27145;SDS011;17980;51.744;7.190;2024-02-21T01:32:54;2.30;;;1.50;;
27145;SDS011;17980;51.744;7.190;2024-02-21T01:35:31;2.80;;;1.87;;
27145;SDS011;17980;51.744;7.190;2024-02-21T01:37:58;1.77;;;0.83;;
27145;SDS011;17980;51.744;7.190;2024-02-21T01:40:25;1.50;;;0.83;;
27145;SDS011;17980;51.744;7.190;2024-02-21T01:43:03;4.33;;;1.60;;
27145;SDS011;17980;51.744;7.190;2024-02-21T01:45:32;3.23;;;0.70;;
27145;SDS011;17980;51.744;7.190;2024-02-21T01:47:59;1.70;;;0.80;;
27145;SDS011;17980;51.744;7.190;2024-02-21T01:50:27;3.23;;;1.10;;
27145;SDS011;17980;51.744;7.190;2024-02-21T01:53:04;5.90;;;0.90;;
27145;SDS011;17980;51.744;7.190;2024-02-21T01:55:33;2.00;;;1.77;;
27145;SDS011;17980;51.744;7.190;2024-02-21T01:58:00;4.20;;;1.17;;
27145;SDS011;17980;51.744;7.190;2024-02-21T02:00:28;3.50;;;1.00;;
27145;SDS011;17980;51.744;7.190;2024-02-21T02:03:06;1.00;;;0.80;;
27145;SDS011;17980;51.744;7.190;2024-02-21T02:05:35;1.80;;;1.03;;
27145;SDS011;17980;51.744;7.190;2024-02-21T02:08:03;1.10;;;1.00;;
27145;SDS011;17980;51.744;7.190;2024-02-21T02:10:32;3.67;;;1.43;;
27145;SDS011;17980;51.744;7.190;2024-02-21T02:13:09;2.77;;;0.73;;
27145;SDS011;17980;51.744;7.190;2024-02-21T02:15:40;1.63;;;1.30;;
27145;SDS011;17980;51.744;7.190;2024-02-21T02:18:08;2.27;;;1.43;;
27145;SDS011;17980;51.744;7.190;2024-02-21T02:20:35;1.53;;;1.13;;
27145;SDS011;17980;51.744;7.190;2024-02-21T02:25:45;2.00;;;1.07;;
27145;SDS011;17980;51.744;7.190;2024-02-21T02:28:14;1.87;;;1.23;;
27145;SDS011;17980;51.744;7.190;2024-02-21T02:30:42;2.30;;;0.97;;
27145;SDS011;17980;51.744;7.190;2024-02-21T02:33:19;2.10;;;1.37;;
27145;SDS011;17980;51.744;7.190;2024-02-21T02:35:46;2.27;;;0.90;;
27145;SDS011;17980;51.744;7.190;2024-02-21T02:38:14;1.00;;;0.90;;
27145;SDS011;17980;51.744;7.190;2024-02-21T02:40:41;1.63;;;1.30;;
27145;SDS011;17980;51.744;7.190;2024-02-21T02:43:18;1.50;;;1.27;;
27145;SDS011;17980;51.744;7.190;2024-02-21T02:45:45;1.07;;;0.73;;
27145;SDS011;17980;51.744;7.190;2024-02-21T02:48:23;0.67;;;0.67;;
27145;SDS011;17980;51.744;7.190;2024-02-21T02:50:50;1.33;;;0.67;;
27145;SDS011;17980;51.744;7.190;2024-02-21T02:53:27;1.53;;;1.07;;
27145;SDS011;17980;51.744;7.190;2024-02-21T02:55:54;1.80;;;0.97;;
27145;SDS011;17980;51.744;7.190;2024-02-21T02:58:21;1.40;;;0.77;;
27145;SDS011;17980;51.744;7.190;2024-02-21T03:00:49;3.03;;;0.77;;
27145;SDS011;17980;51.744;7.190;2024-02-21T03:03:26;2.77;;;0.83;;
27145;SDS011;17980;51.744;7.190;2024-02-21T03:05:53;1.37;;;0.70;;
27145;SDS011;17980;51.744;7.190;2024-02-21T03:08:20;1.30;;;0.93;;
27145;SDS011;17980;51.744;7.190;2024-02-21T03:10:48;1.47;;;0.87;;
27145;SDS011;17980;51.744;7.190;2024-02-21T03:13:25;1.47;;;0.80;;
27145;SDS011;17980;51.744;7.190;2024-02-21T03:18:28;1.17;;;0.60;;
27145;SDS011;17980;51.744;7.190;2024-02-21T03:20:56;1.30;;;1.20;;
27145;SDS011;17980;51.744;7.190;2024-02-21T03:23:33;1.57;;;1.20;;
27145;SDS011;17980;51.744;7.190;2024-02-21T03:26:00;1.90;;;0.90;;
27145;SDS011;17980;51.744;7.190;2024-02-21T03:28:27;1.13;;;0.60;;
27145;SDS011;17980;51.744;7.190;2024-02-21T03:31:04;1.70;;;0.83;;
27145;SDS011;17980;51.744;7.190;2024-02-21T03:33:32;1.87;;;0.90;;
27145;SDS011;17980;51.744;7.190;2024-02-21T03:35:59;2.03;;;1.20;;
27145;SDS011;17980;51.744;7.190;2024-02-21T03:38:26;1.13;;;0.80;;
27145;SDS011;17980;51.744;7.190;2024-02-21T03:41:03;2.13;;;0.87;;
27145;SDS011;17980;51.744;7.190;2024-02-21T03:43:31;0.80;;;0.80;;
27145;SDS011;17980;51.744;7.190;2024-02-21T03:45:58;0.73;;;0.60;;
27145;SDS011;17980;51.744;7.190;2024-02-21T03:48:36;4.47;;;0.53;;
27145;SDS011;17980;51.744;7.190;2024-02-21T03:51:04;0.80;;;0.80;;
27145;SDS011;17980;51.744;7.190;2024-02-21T03:53:41;1.93;;;0.50;;
27145;SDS011;17980;51.744;7.190;2024-02-21T03:56:08;1.17;;;0.60;;
27145;SDS011;17980;51.744;7.190;2024-02-21T03:58:35;2.30;;;1.13;;
27145;SDS011;17980;51.744;7.190;2024-02-21T04:01:14;0.77;;;0.33;;
27145;SDS011;17980;51.744;7.190;2024-02-21T04:03:42;3.53;;;0.90;;
27145;SDS011;17980;51.744;7.190;2024-02-21T04:06:10;3.80;;;1.33;;
27145;SDS011;17980;51.744;7.190;2024-02-21T04:08:38;2.50;;;1.10;;
27145;SDS011;17980;51.744;7.190;2024-02-21T04:11:15;1.50;;;0.83;;
27145;SDS011;17980;51.744;7.190;2024-02-21T04:13:44;2.70;;;1.27;;
27145;SDS011;17980;51.744;7.190;2024-02-21T04:16:21;0.97;;;0.60;;
27145;SDS011;17980;51.744;7.190;2024-02-21T04:18:48;0.70;;;0.60;;
27145;SDS011;17980;51.744;7.190;2024-02-21T04:21:25;2.30;;;0.70;;
27145;SDS011;17980;51.744;7.190;2024-02-21T04:23:53;1.07;;;0.57;;
27145;SDS011;17980;51.744;7.190;2024-02-21T04:26:21;0.77;;;0.63;;
27145;SDS011;17980;51.744;7.190;2024-02-21T04:28:48;0.43;;;0.43;;
27145;SDS011;17980;51.744;7.190;2024-02-21T04:31:25;1.50;;;0.70;;
27145;SDS011;17980;51.744;7.190;2024-02-21T04:33:52;2.50;;;0.40;;
27145;SDS011;17980;51.744;7.190;2024-02-21T04:36:19;1.53;;;0.70;;
27145;SDS011;17980;51.744;7.190;2024-02-21T04:38:47;0.93;;;0.53;;
27145;SDS011;17980;51.744;7.190;2024-02-21T04:41:24;2.30;;;0.77;;
27145;SDS011;17980;51.744;7.190;2024-02-21T04:43:51;0.80;;;0.60;;
27145;SDS011;17980;51.744;7.190;2024-02-21T04:46:28;0.93;;;0.60;;
27145;SDS011;17980;51.744;7.190;2024-02-21T04:48:55;0.63;;;0.53;;
27145;SDS011;17980;51.744;7.190;2024-02-21T04:51:32;3.77;;;1.10;;
27145;SDS011;17980;51.744;7.190;2024-02-21T04:53:59;1.40;;;0.90;;
27145;SDS011;17980;51.744;7.190;2024-02-21T04:56:27;1.47;;;0.53;;
27145;SDS011;17980;51.744;7.190;2024-02-21T04:58:54;0.70;;;0.70;;
27145;SDS011;17980;51.744;7.190;2024-02-21T05:01:31;5.50;;;1.10;;
27145;SDS011;17980;51.744;7.190;2024-02-21T05:03:58;1.77;;;0.60;;
27145;SDS011;17980;51.744;7.190;2024-02-21T05:06:26;1.60;;;0.50;;
27145;SDS011;17980;51.744;7.190;2024-02-21T05:08:53;0.67;;;0.53;;
27145;SDS011;17980;51.744;7.190;2024-02-21T05:11:30;2.17;;;0.73;;
27145;SDS011;17980;51.744;7.190;2024-02-21T05:13:57;0.60;;;0.50;;
27145;SDS011;17980;51.744;7.190;2024-02-21T05:16:34;0.63;;;0.50;;
27145;SDS011;17980;51.744;7.190;2024-02-21T05:19:01;1.77;;;1.03;;
27145;SDS011;17980;51.744;7.190;2024-02-21T05:21:38;0.80;;;0.60;;
27145;SDS011;17980;51.744;7.190;2024-02-21T05:24:06;1.27;;;0.90;;
27145;SDS011;17980;51.744;7.190;2024-02-21T05:26:33;1.63;;;0.77;;
27145;SDS011;17980;51.744;7.190;2024-02-21T05:29:00;1.73;;;1.20;;
27145;SDS011;17980;51.744;7.190;2024-02-21T05:31:54;6.07;;;1.80;;
27145;SDS011;17980;51.744;7.190;2024-02-21T05:34:22;0.77;;;0.77;;
27145;SDS011;17980;51.744;7.190;2024-02-21T05:36:49;2.00;;;1.13;;
27145;SDS011;17980;51.744;7.190;2024-02-21T05:39:17;2.77;;;0.90;;
27145;SDS011;17980;51.744;7.190;2024-02-21T05:41:54;2.63;;;1.23;;
27145;SDS011;17980;51.744;7.190;2024-02-21T05:44:22;0.93;;;0.73;;
27145;SDS011;17980;51.744;7.190;2024-02-21T05:46:49;2.83;;;0.77;;
27145;SDS011;17980;51.744;7.190;2024-02-21T05:49:26;1.33;;;0.77;;
27145;SDS011;17980;51.744;7.190;2024-02-21T05:51:53;0.80;;;0.80;;
27145;SDS011;17980;51.744;7.190;2024-02-21T05:54:30;0.90;;;0.80;;
27145;SDS011;17980;51.744;7.190;2024-02-21T05:56:58;1.30;;;0.87;;
27145;SDS011;17980;51.744;7.190;2024-02-21T05:59:25;1.80;;;0.70;;
27145;SDS011;17980;51.744;7.190;2024-02-21T06:02:02;1.80;;;0.93;;
27145;SDS011;17980;51.744;7.190;2024-02-21T06:04:30;1.40;;;0.93;;
27145;SDS011;17980;51.744;7.190;2024-02-21T06:06:57;1.20;;;0.50;;
27145;SDS011;17980;51.744;7.190;2024-02-21T06:09:24;0.90;;;0.60;;
27145;SDS011;17980;51.744;7.190;2024-02-21T06:12:01;1.93;;;0.93;;
27145;SDS011;17980;51.744;7.190;2024-02-21T06:14:29;2.20;;;1.17;;
27145;SDS011;17980;51.744;7.190;2024-02-21T06:16:57;2.47;;;1.10;;
27145;SDS011;17980;51.744;7.190;2024-02-21T06:19:37;2.50;;;1.27;;
27145;SDS011;17980;51.744;7.190;2024-02-21T06:22:07;0.47;;;0.47;;
27145;SDS011;17980;51.744;7.190;2024-02-21T06:24:44;1.53;;;0.87;;
27145;SDS011;17980;51.744;7.190;2024-02-21T06:27:11;0.97;;;0.60;;
27145;SDS011;17980;51.744;7.190;2024-02-21T06:29:40;1.23;;;0.70;;
27145;SDS011;17980;51.744;7.190;2024-02-21T06:32:17;1.70;;;1.00;;
27145;SDS011;17980;51.744;7.190;2024-02-21T06:34:44;0.93;;;0.67;;
27145;SDS011;17980;51.744;7.190;2024-02-21T06:37:12;0.97;;;0.63;;
27145;SDS011;17980;51.744;7.190;2024-02-21T06:39:39;1.23;;;0.60;;
27145;SDS011;17980;51.744;7.190;2024-02-21T06:42:16;0.87;;;0.77;;
27145;SDS011;17980;51.744;7.190;2024-02-21T06:44:44;1.77;;;0.83;;
27145;SDS011;17980;51.744;7.190;2024-02-21T06:47:11;0.90;;;0.70;;
27145;SDS011;17980;51.744;7.190;2024-02-21T06:49:49;0.40;;;0.37;;
27145;SDS011;17980;51.744;7.190;2024-02-21T06:52:17;0.50;;;0.50;;
27145;SDS011;17980;51.744;7.190;2024-02-21T06:54:46;2.23;;;0.90;;
27145;SDS011;17980;51.744;7.190;2024-02-21T06:57:13;0.70;;;0.50;;
27145;SDS011;17980;51.744;7.190;2024-02-21T06:59:50;0.50;;;0.40;;
27145;SDS011;17980;51.744;7.190;2024-02-21T07:02:18;0.87;;;0.70;;
27145;SDS011;17980;51.744;7.190;2024-02-21T07:04:55;0.93;;;0.50;;
27145;SDS011;17980;51.744;7.190;2024-02-21T07:07:22;0.40;;;0.40;;
27145;SDS011;17980;51.744;7.190;2024-02-21T07:09:59;1.77;;;1.27;;
27145;SDS011;17980;51.744;7.190;2024-02-21T07:12:26;0.70;;;0.30;;
27145;SDS011;17980;51.744;7.190;2024-02-21T07:14:54;0.73;;;0.60;;
27145;SDS011;17980;51.744;7.190;2024-02-21T07:17:21;0.47;;;0.40;;
27145;SDS011;17980;51.744;7.190;2024-02-21T07:19:58;0.50;;;0.40;;
27145;SDS011;17980;51.744;7.190;2024-02-21T07:22:27;0.73;;;0.70;;
27145;SDS011;17980;51.744;7.190;2024-02-21T07:24:54;0.97;;;0.50;;
27145;SDS011;17980;51.744;7.190;2024-02-21T07:27:22;2.33;;;0.60;;
27145;SDS011;17980;51.744;7.190;2024-02-21T07:29:59;1.23;;;0.70;;
27145;SDS011;17980;51.744;7.190;2024-02-21T07:32:26;0.60;;;0.60;;
27145;SDS011;17980;51.744;7.190;2024-02-21T07:34:54;1.10;;;0.50;;
27145;SDS011;17980;51.744;7.190;2024-02-21T07:37:31;1.83;;;0.60;;
27145;SDS011;17980;51.744;7.190;2024-02-21T07:39:58;1.13;;;0.40;;
27145;SDS011;17980;51.744;7.190;2024-02-21T07:42:35;0.60;;;0.40;;
27145;SDS011;17980;51.744;7.190;2024-02-21T07:45:04;1.07;;;0.60;;
27145;SDS011;17980;51.744;7.190;2024-02-21T07:50:08;1.60;;;0.57;;
27145;SDS011;17980;51.744;7.190;2024-02-21T07:52:36;0.67;;;0.60;;
27145;SDS011;17980;51.744;7.190;2024-02-21T07:55:04;6.37;;;0.50;;
27145;SDS011;17980;51.744;7.190;2024-02-21T07:57:32;0.90;;;0.73;;
27145;SDS011;17980;51.744;7.190;2024-02-21T07:59:59;2.03;;;1.33;;
27145;SDS011;17980;51.744;7.190;2024-02-21T08:02:36;0.67;;;0.57;;
27145;SDS011;17980;51.744;7.190;2024-02-21T08:05:04;0.30;;;0.30;;
27145;SDS011;17980;51.744;7.190;2024-02-21T08:07:41;1.30;;;0.83;;
27145;SDS011;17980;51.744;7.190;2024-02-21T08:10:09;0.80;;;0.80;;
27145;SDS011;17980;51.744;7.190;2024-02-21T08:12:46;2.70;;;0.50;;
27145;SDS011;17980;51.744;7.190;2024-02-21T08:15:13;0.60;;;0.60;;
27145;SDS011;17980;51.744;7.190;2024-02-21T08:17:41;0.93;;;0.50;;
27145;SDS011;17980;51.744;7.190;2024-02-21T08:20:10;2.87;;;0.50;;
27145;SDS011;17980;51.744;7.190;2024-02-21T08:22:47;0.20;;;0.20;;
27145;SDS011;17980;51.744;7.190;2024-02-21T08:25:14;0.60;;;0.50;;
27145;SDS011;17980;51.744;7.190;2024-02-21T08:27:42;0.50;;;0.50;;
27145;SDS011;17980;51.744;7.190;2024-02-21T08:30:11;1.50;;;0.90;;
27145;SDS011;17980;51.744;7.190;2024-02-21T08:32:48;0.53;;;0.50;;
27145;SDS011;17980;51.744;7.190;2024-02-21T08:35:16;1.73;;;0.53;;
27145;SDS011;17980;51.744;7.190;2024-02-21T08:40:20;1.17;;;0.57;;
27145;SDS011;17980;51.744;7.190;2024-02-21T08:42:47;0.30;;;0.30;;
27145;SDS011;17980;51.744;7.190;2024-02-21T08:45:15;0.57;;;0.57;;
27145;SDS011;17980;51.744;7.190;2024-02-21T08:47:43;2.37;;;0.63;;
27145;SDS011;17980;51.744;7.190;2024-02-21T08:52:56;0.40;;;0.40;;
27145;SDS011;17980;51.744;7.190;2024-02-21T08:55:23;0.73;;;0.50;;
27145;SDS011;17980;51.744;7.190;2024-02-21T08:57:51;0.87;;;0.57;;
27145;SDS011;17980;51.744;7.190;2024-02-21T09:00:27;0.53;;;0.27;;
27145;SDS011;17980;51.744;7.190;2024-02-21T09:02:55;0.20;;;0.20;;
27145;SDS011;17980;51.744;7.190;2024-02-21T09:05:32;1.00;;;0.63;;
27145;SDS011;17980;51.744;7.190;2024-02-21T09:08:00;0.33;;;0.33;;
27145;SDS011;17980;51.744;7.190;2024-02-21T09:10:37;0.80;;;0.60;;
27145;SDS011;17980;51.744;7.190;2024-02-21T09:13:05;2.27;;;0.67;;
27145;SDS011;17980;51.744;7.190;2024-02-21T09:15:34;1.00;;;0.40;;
27145;SDS011;17980;51.744;7.190;2024-02-21T09:18:11;2.33;;;0.67;;
27145;SDS011;17980;51.744;7.190;2024-02-21T09:20:38;1.10;;;0.50;;
27145;SDS011;17980;51.744;7.190;2024-02-21T09:23:06;1.00;;;0.40;;
27145;SDS011;17980;51.744;7.190;2024-02-21T09:25:33;3.17;;;0.70;;
27145;SDS011;17980;51.744;7.190;2024-02-21T09:28:10;1.37;;;0.70;;
27145;SDS011;17980;51.744;7.190;2024-02-21T09:30:38;1.10;;;0.53;;
27145;SDS011;17980;51.744;7.190;2024-02-21T09:33:15;0.50;;;0.30;;
27145;SDS011;17980;51.744;7.190;2024-02-21T09:35:43;0.50;;;0.40;;
27145;SDS011;17980;51.744;7.190;2024-02-21T09:38:20;0.83;;;0.60;;
27145;SDS011;17980;51.744;7.190;2024-02-21T09:43:23;1.07;;;0.40;;
27145;SDS011;17980;51.744;7.190;2024-02-21T09:45:51;0.30;;;0.30;;
27145;SDS011;17980;51.744;7.190;2024-02-21T09:48:33;0.83;;;0.60;;
27145;SDS011;17980;51.744;7.190;2024-02-21T09:51:04;0.40;;;0.30;;
27145;SDS011;17980;51.744;7.190;2024-02-21T09:53:42;0.87;;;0.60;;
27145;SDS011;17980;51.744;7.190;2024-02-21T09:56:10;0.50;;;0.50;;
27145;SDS011;17980;51.744;7.190;2024-02-21T09:58:47;0.90;;;0.40;;
27145;SDS011;17980;51.744;7.190;2024-02-21T10:01:15;1.30;;;0.40;;
27145;SDS011;17980;51.744;7.190;2024-02-21T10:03:42;0.60;;;0.47;;
27145;SDS011;17980;51.744;7.190;2024-02-21T10:06:10;1.63;;;0.50;;
27145;SDS011;17980;51.744;7.190;2024-02-21T10:08:52;0.60;;;0.60;;
27145;SDS011;17980;51.744;7.190;2024-02-21T10:11:22;1.37;;;0.50;;
27145;SDS011;17980;51.744;7.190;2024-02-21T10:13:50;0.67;;;0.47;;
27145;SDS011;17980;51.744;7.190;2024-02-21T10:16:19;0.30;;;0.20;;
27145;SDS011;17980;51.744;7.190;2024-02-21T10:18:56;2.80;;;0.90;;
27145;SDS011;17980;51.744;7.190;2024-02-21T10:21:33;0.10;;;0.10;;
27145;SDS011;17980;51.744;7.190;2024-02-21T10:24:00;1.60;;;0.70;;
27145;SDS011;17980;51.744;7.190;2024-02-21T10:26:28;0.70;;;0.30;;
27145;SDS011;17980;51.744;7.190;2024-02-21T10:29:05;0.20;;;0.20;;
27145;SDS011;17980;51.744;7.190;2024-02-21T10:31:32;0.93;;;0.40;;
27145;SDS011;17980;51.744;7.190;2024-02-21T10:34:00;0.60;;;0.60;;
27145;SDS011;17980;51.744;7.190;2024-02-21T10:36:29;2.33;;;0.60;;
27145;SDS011;17980;51.744;7.190;2024-02-21T10:39:06;1.37;;;0.30;;
27145;SDS011;17980;51.744;7.190;2024-02-21T10:41:35;1.10;;;0.60;;
27145;SDS011;17980;51.744;7.190;2024-02-21T10:44:04;2.27;;;0.57;;
27145;SDS011;17980;51.744;7.190;2024-02-21T10:46:34;0.33;;;0.33;;
27145;SDS011;17980;51.744;7.190;2024-02-21T10:49:12;0.63;;;0.43;;
27145;SDS011;17980;51.744;7.190;2024-02-21T10:51:44;0.60;;;0.60;;
27145;SDS011;17980;51.744;7.190;2024-02-21T10:54:22;0.57;;;0.30;;
27145;SDS011;17980;51.744;7.190;2024-02-21T10:56:48;0.60;;;0.53;;
27145;SDS011;17980;51.744;7.190;2024-02-21T10:59:26;0.43;;;0.30;;
27145;SDS011;17980;51.744;7.190;2024-02-21T11:01:56;0.87;;;0.30;;
27145;SDS011;17980;51.744;7.190;2024-02-21T11:04:23;2.87;;;0.83;;
27145;SDS011;17980;51.744;7.190;2024-02-21T11:06:52;0.60;;;0.30;;
27145;SDS011;17980;51.744;7.190;2024-02-21T11:09:32;0.40;;;0.30;;
27145;SDS011;17980;51.744;7.190;2024-02-21T11:12:01;1.67;;;0.73;;
27145;SDS011;17980;51.744;7.190;2024-02-21T11:14:30;0.47;;;0.47;;
27145;SDS011;17980;51.744;7.190;2024-02-21T11:16:58;0.60;;;0.40;;
27145;SDS011;17980;51.744;7.190;2024-02-21T11:19:35;1.53;;;0.60;;
27145;SDS011;17980;51.744;7.190;2024-02-21T11:22:03;0.40;;;0.40;;
27145;SDS011;17980;51.744;7.190;2024-02-21T11:24:34;0.50;;;0.50;;
27145;SDS011;17980;51.744;7.190;2024-02-21T11:27:11;0.90;;;0.60;;
27145;SDS011;17980;51.744;7.190;2024-02-21T11:29:49;0.70;;;0.30;;
27145;SDS011;17980;51.744;7.190;2024-02-21T11:32:19;1.00;;;0.40;;
27145;SDS011;17980;51.744;7.190;2024-02-21T11:34:54;0.83;;;0.33;;
27145;SDS011;17980;51.744;7.190;2024-02-21T11:39:59;3.40;;;0.57;;
27145;SDS011;17980;51.744;7.190;2024-02-21T11:42:29;0.40;;;0.40;;
27145;SDS011;17980;51.744;7.190;2024-02-21T11:44:57;0.50;;;0.30;;
27145;SDS011;17980;51.744;7.190;2024-02-21T11:47:25;0.43;;;0.43;;
27145;SDS011;17980;51.744;7.190;2024-02-21T11:50:09;0.10;;;0.10;;
27145;SDS011;17980;51.744;7.190;2024-02-21T11:52:36;1.03;;;0.40;;
27145;SDS011;17980;51.744;7.190;2024-02-21T11:55:05;0.33;;;0.33;;
27145;SDS011;17980;51.744;7.190;2024-02-21T11:57:34;0.27;;;0.27;;
27145;SDS011;17980;51.744;7.190;2024-02-21T12:00:12;0.27;;;0.20;;
27145;SDS011;17980;51.744;7.190;2024-02-21T12:02:42;0.27;;;0.20;;
27145;SDS011;17980;51.744;7.190;2024-02-21T12:05:10;0.40;;;0.30;;
27145;SDS011;17980;51.744;7.190;2024-02-21T12:07:53;0.70;;;0.20;;
27145;SDS011;17980;51.744;7.190;2024-02-21T12:10:21;0.20;;;0.20;;
27145;SDS011;17980;51.744;7.190;2024-02-21T12:13:05;0.53;;;0.40;;
27145;SDS011;17980;51.744;7.190;2024-02-21T12:15:34;1.17;;;0.57;;
27145;SDS011;17980;51.744;7.190;2024-02-21T12:18:11;0.77;;;0.60;;
27145;SDS011;17980;51.744;7.190;2024-02-21T12:20:38;0.50;;;0.37;;
27145;SDS011;17980;51.744;7.190;2024-02-21T12:23:09;1.70;;;0.47;;
27145;SDS011;17980;51.744;7.190;2024-02-21T12:25:46;6.07;;;0.60;;
27145;SDS011;17980;51.744;7.190;2024-02-21T12:28:14;1.33;;;0.40;;
27145;SDS011;17980;51.744;7.190;2024-02-21T12:30:51;0.20;;;0.20;;
27145;SDS011;17980;51.744;7.190;2024-02-21T12:33:18;0.37;;;0.30;;
27145;SDS011;17980;51.744;7.190;2024-02-21T12:35:47;0.50;;;0.20;;
27145;SDS011;17980;51.744;7.190;2024-02-21T12:38:24;2.73;;;0.70;;
27145;SDS011;17980;51.744;7.190;2024-02-21T12:40:51;0.93;;;0.50;;
27145;SDS011;17980;51.744;7.190;2024-02-21T12:43:28;1.40;;;1.00;;
27145;SDS011;17980;51.744;7.190;2024-02-21T12:45:56;1.50;;;0.73;;
27145;SDS011;17980;51.744;7.190;2024-02-21T12:48:33;0.43;;;0.43;;
27145;SDS011;17980;51.744;7.190;2024-02-21T12:51:00;2.10;;;0.97;;
27145;SDS011;17980;51.744;7.190;2024-02-21T12:53:28;0.93;;;0.60;;
27145;SDS011;17980;51.744;7.190;2024-02-21T12:55:56;0.20;;;0.20;;
27145;SDS011;17980;51.744;7.190;2024-02-21T12:58:33;0.40;;;0.40;;
27145;SDS011;17980;51.744;7.190;2024-02-21T13:01:02;1.87;;;0.50;;
27145;SDS011;17980;51.744;7.190;2024-02-21T13:03:39;0.70;;;0.50;;
27145;SDS011;17980;51.744;7.190;2024-02-21T13:06:06;0.43;;;0.43;;
27145;SDS011;17980;51.744;7.190;2024-02-21T13:08:36;0.47;;;0.33;;
27145;SDS011;17980;51.744;7.190;2024-02-21T13:11:13;0.63;;;0.60;;
27145;SDS011;17980;51.744;7.190;2024-02-21T13:13:41;0.30;;;0.30;;
27145;SDS011;17980;51.744;7.190;2024-02-21T13:16:08;1.33;;;0.60;;
27145;SDS011;17980;51.744;7.190;2024-02-21T13:18:36;1.70;;;0.30;;
27145;SDS011;17980;51.744;7.190;2024-02-21T13:21:13;0.43;;;0.30;;
27145;SDS011;17980;51.744;7.190;2024-02-21T13:23:41;0.93;;;0.30;;
27145;SDS011;17980;51.744;7.190;2024-02-21T13:26:10;1.30;;;0.40;;
27145;SDS011;17980;51.744;7.190;2024-02-21T13:28:47;0.60;;;0.50;;
27145;SDS011;17980;51.744;7.190;2024-02-21T13:31:14;1.80;;;0.20;;
27145;SDS011;17980;51.744;7.190;2024-02-21T13:33:51;0.30;;;0.30;;
27145;SDS011;17980;51.744;7.190;2024-02-21T13:36:19;0.60;;;0.60;;
27145;SDS011;17980;51.744;7.190;2024-02-21T13:38:46;0.60;;;0.50;;
27145;SDS011;17980;51.744;7.190;2024-02-21T13:41:23;1.67;;;0.60;;
27145;SDS011;17980;51.744;7.190;2024-02-21T13:43:50;0.57;;;0.57;;
27145;SDS011;17980;51.744;7.190;2024-02-21T13:46:18;2.17;;;0.97;;
27145;SDS011;17980;51.744;7.190;2024-02-21T13:48:45;0.43;;;0.30;;
27145;SDS011;17980;51.744;7.190;2024-02-21T13:51:22;0.57;;;0.40;;
27145;SDS011;17980;51.744;7.190;2024-02-21T13:53:50;0.30;;;0.20;;
27145;SDS011;17980;51.744;7.190;2024-02-21T13:56:17;0.53;;;0.20;;
27145;SDS011;17980;51.744;7.190;2024-02-21T13:58:54;0.30;;;0.30;;
27145;SDS011;17980;51.744;7.190;2024-02-21T14:01:21;0.40;;;0.40;;
27145;SDS011;17980;51.744;7.190;2024-02-21T14:03:58;2.07;;;0.30;;
27145;SDS011;17980;51.744;7.190;2024-02-21T14:06:26;0.40;;;0.30;;
27145;SDS011;17980;51.744;7.190;2024-02-21T14:08:53;0.10;;;0.10;;
27145;SDS011;17980;51.744;7.190;2024-02-21T14:11:30;0.53;;;0.40;;
27145;SDS011;17980;51.744;7.190;2024-02-21T14:13:57;1.67;;;0.63;;
27145;SDS011;17980;51.744;7.190;2024-02-21T14:16:34;2.07;;;0.43;;
27145;SDS011;17980;51.744;7.190;2024-02-21T14:19:02;0.87;;;0.40;;
27145;SDS011;17980;51.744;7.190;2024-02-21T14:21:39;0.60;;;0.30;;
27145;SDS011;17980;51.744;7.190;2024-02-21T14:24:06;1.80;;;0.20;;
27145;SDS011;17980;51.744;7.190;2024-02-21T14:26:34;0.20;;;0.20;;
27145;SDS011;17980;51.744;7.190;2024-02-21T14:29:01;0.57;;;0.30;;
27145;SDS011;17980;51.744;7.190;2024-02-21T14:31:39;1.03;;;0.40;;
27145;SDS011;17980;51.744;7.190;2024-02-21T14:34:08;0.20;;;0.20;;
27145;SDS011;17980;51.744;7.190;2024-02-21T14:36:36;0.73;;;0.20;;
27145;SDS011;17980;51.744;7.190;2024-02-21T14:39:06;1.57;;;0.20;;
27145;SDS011;17980;51.744;7.190;2024-02-21T14:41:44;0.10;;;0.10;;
27145;SDS011;17980;51.744;7.190;2024-02-21T14:44:11;0.37;;;0.17;;
27145;SDS011;17980;51.744;7.190;2024-02-21T14:46:48;1.30;;;0.10;;
27145;SDS011;17980;51.744;7.190;2024-02-21T14:49:16;4.60;;;0.73;;
27145;SDS011;17980;51.744;7.190;2024-02-21T14:51:53;0.67;;;0.20;;
27145;SDS011;17980;51.744;7.190;2024-02-21T14:54:20;0.33;;;0.27;;
27145;SDS011;17980;51.744;7.190;2024-02-21T14:56:48;1.53;;;0.60;;
27145;SDS011;17980;51.744;7.190;2024-02-21T14:59:25;0.23;;;0.23;;
27145;SDS011;17980;51.744;7.190;2024-02-21T15:01:53;0.40;;;0.30;;
27145;SDS011;17980;51.744;7.190;2024-02-21T15:04:30;1.70;;;0.20;;
27145;SDS011;17980;51.744;7.190;2024-02-21T15:06:57;1.13;;;0.30;;
27145;SDS011;17980;51.744;7.190;2024-02-21T15:09:34;0.30;;;0.30;;
27145;SDS011;17980;51.744;7.190;2024-02-21T15:12:01;0.47;;;0.20;;
27145;SDS011;17980;51.744;7.190;2024-02-21T15:17:05;0.40;;;0.10;;
27145;SDS011;17980;51.744;7.190;2024-02-21T15:19:42;0.40;;;0.20;;
27145;SDS011;17980;51.744;7.190;2024-02-21T15:22:13;0.73;;;0.50;;
27145;SDS011;17980;51.744;7.190;2024-02-21T15:24:41;0.17;;;0.17;;
27145;SDS011;17980;51.744;7.190;2024-02-21T15:27:09;2.33;;;0.50;;
27145;SDS011;17980;51.744;7.190;2024-02-21T15:29:46;1.07;;;0.40;;